sensor_id;sensor_type;location;lat;lon;timestamp;pressure;altitude;pressure_sealevel;temperature;humidity
69766;BME280;57039;48.014;21.384;2022-09-09T00:09:13;100366.37;;;19.82;100.00
69766;BME280;57039;48.014;21.384;2022-09-09T00:29:37;100329.03;;;18.80;100.00
69766;BME280;57039;48.014;21.384;2022-09-09T00:39:46;100346.47;;;18.63;100.00
69766;BME280;57039;48.014;21.384;2022-09-09T01:10:41;100357.50;;;18.20;100.00
69766;BME280;57039;48.014;21.384;2022-09-09T01:31:07;100347.16;;;18.07;100.00
69766;BME280;57039;48.014;21.384;2022-09-09T01:41:14;100351.19;;;18.01;100.00
69766;BME280;57039;48.014;21.384;2022-09-09T01:54:43;100315.59;;;18.53;100.00
69766;BME280;57039;48.014;21.384;2022-09-09T02:10:55;100311.41;;;18.40;100.00
69766;BME280;57039;48.014;21.384;2022-09-09T02:21:02;100311.41;;;18.40;100.00
69766;BME280;57039;48.014;21.384;2022-09-09T02:31:06;100297.50;;;17.88;100.00
69766;BME280;57039;48.014;21.384;2022-09-09T02:41:09;100301.56;;;17.92;100.00
69766;BME280;57039;48.014;21.384;2022-09-09T02:51:19;100305.78;;;17.95;100.00
69766;BME280;57039;48.014;21.384;2022-09-09T03:01:26;100335.66;;;17.87;100.00
69766;BME280;57039;48.014;21.384;2022-09-09T03:11:30;100317.63;;;17.81;100.00
69766;BME280;57039;48.014;21.384;2022-09-09T03:21:33;100333.00;;;17.87;100.00
69766;BME280;57039;48.014;21.384;2022-09-09T03:31:36;100341.69;;;18.09;100.00
69766;BME280;57039;48.014;21.384;2022-09-09T03:41:39;100354.97;;;18.09;100.00
69766;BME280;57039;48.014;21.384;2022-09-09T03:51:42;100360.25;;;17.89;100.00
69766;BME280;57039;48.014;21.384;2022-09-09T04:12:28;100399.06;;;18.60;100.00
69766;BME280;57039;48.014;21.384;2022-09-09T04:29:46;100391.81;;;18.81;100.00
69766;BME280;57039;48.014;21.384;2022-09-09T04:39:49;100391.81;;;18.81;100.00
69766;BME280;57039;48.014;21.384;2022-09-09T04:49:52;100397.66;;;18.36;100.00
69766;BME280;57039;48.014;21.384;2022-09-09T04:59:58;100407.31;;;18.47;100.00
69766;BME280;57039;48.014;21.384;2022-09-09T05:10:04;100401.84;;;18.48;100.00
69766;BME280;57039;48.014;21.384;2022-09-09T05:20:08;100403.56;;;18.69;100.00
69766;BME280;57039;48.014;21.384;2022-09-09T05:51:35;100414.88;;;19.39;100.00
69766;BME280;57039;48.014;21.384;2022-09-09T06:01:39;100414.88;;;19.39;100.00
69766;BME280;57039;48.014;21.384;2022-09-09T06:11:46;100418.12;;;18.84;100.00
69766;BME280;57039;48.014;21.384;2022-09-09T06:21:49;100414.22;;;18.98;100.00
69766;BME280;57039;48.014;21.384;2022-09-09T06:31:53;100422.19;;;19.08;100.00
69766;BME280;57039;48.014;21.384;2022-09-09T07:21:59;100453.78;;;20.52;100.00
69766;BME280;57039;48.014;21.384;2022-09-09T07:32:02;100453.78;;;20.52;100.00
69766;BME280;57039;48.014;21.384;2022-09-09T07:43:42;100458.56;;;20.58;100.00
69766;BME280;57039;48.014;21.384;2022-09-09T07:53:46;100458.56;;;20.58;100.00
69766;BME280;57039;48.014;21.384;2022-09-09T08:03:59;100440.72;;;20.49;100.00
69766;BME280;57039;48.014;21.384;2022-09-09T08:14:03;100458.00;;;20.55;100.00
69766;BME280;57039;48.014;21.384;2022-09-09T08:24:07;100475.09;;;20.80;100.00
69766;BME280;57039;48.014;21.384;2022-09-09T08:34:13;100465.06;;;21.17;100.00
69766;BME280;57039;48.014;21.384;2022-09-09T08:54:51;100485.59;;;21.79;96.54
69766;BME280;57039;48.014;21.384;2022-09-09T09:05:08;100473.00;;;21.71;99.46
69766;BME280;57039;48.014;21.384;2022-09-09T09:15:25;100482.78;;;21.88;95.53
69766;BME280;57039;48.014;21.384;2022-09-09T09:25:39;100485.59;;;21.79;98.59
69766;BME280;57039;48.014;21.384;2022-09-09T09:35:44;100482.78;;;21.62;97.69
69766;BME280;57039;48.014;21.384;2022-09-09T09:45:48;100492.44;;;21.55;98.72
69766;BME280;57039;48.014;21.384;2022-09-09T09:56:13;100506.44;;;21.75;95.99
69766;BME280;57039;48.014;21.384;2022-09-09T10:06:32;100501.47;;;22.15;93.08
69766;BME280;57039;48.014;21.384;2022-09-09T10:17:05;100514.00;;;22.14;92.87
69766;BME280;57039;48.014;21.384;2022-09-09T10:57:58;100506.47;;;23.02;87.36
69766;BME280;57039;48.014;21.384;2022-09-09T11:08:05;100511.81;;;21.83;91.18
69766;BME280;57039;48.014;21.384;2022-09-09T11:18:17;100510.75;;;22.79;86.63
69766;BME280;57039;48.014;21.384;2022-09-09T11:49:41;100520.22;;;23.16;81.61
69766;BME280;57039;48.014;21.384;2022-09-09T11:59:50;100518.37;;;23.49;77.10
69766;BME280;57039;48.014;21.384;2022-09-09T12:10:02;100512.19;;;23.49;78.59
69766;BME280;57039;48.014;21.384;2022-09-09T12:20:14;100505.19;;;24.20;72.71
69766;BME280;57039;48.014;21.384;2022-09-09T12:30:18;100500.47;;;25.61;68.10
69766;BME280;57039;48.014;21.384;2022-09-09T12:40:29;100491.72;;;25.21;67.59
69766;BME280;57039;48.014;21.384;2022-09-09T12:50:35;100482.94;;;25.04;67.69
69766;BME280;57039;48.014;21.384;2022-09-09T13:00:49;100486.81;;;25.02;65.27
69766;BME280;57039;48.014;21.384;2022-09-09T13:10:57;100471.84;;;24.85;66.38
69766;BME280;57039;48.014;21.384;2022-09-09T13:21:05;100461.34;;;24.75;66.48
69766;BME280;57039;48.014;21.384;2022-09-09T13:31:21;100458.19;;;24.71;66.68
69766;BME280;57039;48.014;21.384;2022-09-09T14:01:45;100413.75;;;24.69;67.08
69766;BME280;57039;48.014;21.384;2022-09-09T14:11:48;100415.53;;;24.53;68.58
69766;BME280;57039;48.014;21.384;2022-09-09T14:21:51;100398.94;;;24.19;71.05
69766;BME280;57039;48.014;21.384;2022-09-09T14:31:54;100400.69;;;24.03;70.80
69766;BME280;57039;48.014;21.384;2022-09-09T14:41:57;100396.72;;;23.99;70.36
69766;BME280;57039;48.014;21.384;2022-09-09T14:52:01;100393.81;;;23.61;71.57
69766;BME280;57039;48.014;21.384;2022-09-09T15:02:05;100398.25;;;23.21;72.72
69766;BME280;57039;48.014;21.384;2022-09-09T15:12:08;100395.72;;;22.87;73.02
69766;BME280;57039;48.014;21.384;2022-09-09T15:22:11;100391.53;;;22.93;72.23
69766;BME280;57039;48.014;21.384;2022-09-09T15:32:14;100415.78;;;22.91;72.80
69766;BME280;57039;48.014;21.384;2022-09-09T15:42:17;100426.47;;;22.67;74.92
69766;BME280;57039;48.014;21.384;2022-09-09T15:52:20;100426.63;;;22.57;76.17
69766;BME280;57039;48.014;21.384;2022-09-09T16:02:23;100414.03;;;22.33;77.45
69766;BME280;57039;48.014;21.384;2022-09-09T16:12:27;100414.94;;;22.16;78.30
69766;BME280;57039;48.014;21.384;2022-09-09T16:22:30;100423.25;;;21.96;78.99
69766;BME280;57039;48.014;21.384;2022-09-09T16:32:33;100422.50;;;21.78;79.85
69766;BME280;57039;48.014;21.384;2022-09-09T16:42:37;100424.09;;;21.71;81.22
69766;BME280;57039;48.014;21.384;2022-09-09T16:52:41;100427.16;;;21.50;83.02
69766;BME280;57039;48.014;21.384;2022-09-09T17:02:44;100422.16;;;21.29;84.22
69766;BME280;57039;48.014;21.384;2022-09-09T17:12:47;100428.97;;;21.05;86.69
69766;BME280;57039;48.014;21.384;2022-09-09T17:22:50;100428.38;;;20.75;88.62
69766;BME280;57039;48.014;21.384;2022-09-09T17:32:53;100448.34;;;20.71;89.53
69766;BME280;57039;48.014;21.384;2022-09-09T17:42:56;100445.97;;;20.68;90.44
69766;BME280;57039;48.014;21.384;2022-09-09T17:52:59;100447.50;;;20.53;91.13
69766;BME280;57039;48.014;21.384;2022-09-09T18:03:03;100452.56;;;20.46;91.71
69766;BME280;57039;48.014;21.384;2022-09-09T18:13:06;100438.59;;;20.35;92.57
69766;BME280;57039;48.014;21.384;2022-09-09T18:23:11;100445.12;;;20.22;92.99
69766;BME280;57039;48.014;21.384;2022-09-09T18:33:14;100454.44;;;20.09;93.58
69766;BME280;57039;48.014;21.384;2022-09-09T18:43:18;100457.56;;;19.94;94.64
69766;BME280;57039;48.014;21.384;2022-09-09T18:53:21;100460.28;;;19.84;95.34
69766;BME280;57039;48.014;21.384;2022-09-09T19:03:26;100453.31;;;19.74;96.05
69766;BME280;57039;48.014;21.384;2022-09-09T19:13:31;100457.37;;;19.68;97.21
69766;BME280;57039;48.014;21.384;2022-09-09T19:23:34;100444.22;;;19.67;97.61
69766;BME280;57039;48.014;21.384;2022-09-09T19:33:37;100447.56;;;19.59;98.28
69766;BME280;57039;48.014;21.384;2022-09-09T19:43:40;100459.56;;;19.35;99.69
69766;BME280;57039;48.014;21.384;2022-09-09T19:53:49;100445.81;;;19.30;100.00
69766;BME280;57039;48.014;21.384;2022-09-09T20:03:53;100438.56;;;19.13;100.00
69766;BME280;57039;48.014;21.384;2022-09-09T20:13:56;100435.09;;;19.03;100.00
69766;BME280;57039;48.014;21.384;2022-09-09T20:24:02;100413.66;;;18.95;100.00
69766;BME280;57039;48.014;21.384;2022-09-09T20:34:13;100417.03;;;18.97;100.00
69766;BME280;57039;48.014;21.384;2022-09-09T20:44:19;100408.06;;;18.98;100.00
69766;BME280;57039;48.014;21.384;2022-09-09T20:54:25;100409.59;;;18.90;100.00
69766;BME280;57039;48.014;21.384;2022-09-09T21:04:32;100405.81;;;18.83;100.00
69766;BME280;57039;48.014;21.384;2022-09-09T21:14:34;100421.50;;;18.77;100.00
69766;BME280;57039;48.014;21.384;2022-09-09T21:24:38;100414.62;;;18.64;100.00
69766;BME280;57039;48.014;21.384;2022-09-09T21:34:41;100410.25;;;18.54;100.00
69766;BME280;57039;48.014;21.384;2022-09-09T21:44:48;100387.47;;;18.41;100.00
69766;BME280;57039;48.014;21.384;2022-09-09T21:54:51;100382.28;;;18.40;100.00
69766;BME280;57039;48.014;21.384;2022-09-09T22:04:54;100376.81;;;18.41;100.00
69766;BME280;57039;48.014;21.384;2022-09-09T22:14:58;100371.78;;;18.38;100.00
69766;BME280;57039;48.014;21.384;2022-09-09T22:25:01;100387.88;;;18.37;100.00
69766;BME280;57039;48.014;21.384;2022-09-09T22:35:05;100388.72;;;18.37;100.00
69766;BME280;57039;48.014;21.384;2022-09-09T22:45:10;100382.56;;;18.37;100.00
69766;BME280;57039;48.014;21.384;2022-09-09T22:55:13;100363.81;;;18.38;100.00
69766;BME280;57039;48.014;21.384;2022-09-09T23:05:17;100371.25;;;18.35;100.00
69766;BME280;57039;48.014;21.384;2022-09-09T23:15:21;100360.19;;;18.30;100.00
69766;BME280;57039;48.014;21.384;2022-09-09T23:25:25;100350.81;;;18.25;100.00
69766;BME280;57039;48.014;21.384;2022-09-09T23:35:30;100336.53;;;18.17;100.00
69766;BME280;57039;48.014;21.384;2022-09-09T23:45:34;100350.66;;;18.08;100.00
69766;BME280;57039;48.014;21.384;2022-09-09T23:55:38;100332.88;;;17.98;100.00
